Time;durP1;ratioP1;P1;durP2;ratioP2;P2;SDS_P1;SDS_P2;PMS_P1;PMS_P2;Temp;Humidity;BMP_temperature;BMP_pressure;BME280_temperature;BME280_humidity;BME280_pressure;Samples;Min_cycle;Max_cycle;Signal;HPM_P1;HPM_P2
2021/07/25 00:02:11;;;;;;;25.77;19.23;;;;;;;20.24;75.97;99794.24;2668795;89;21048;-63
2021/07/25 00:06:20;;;;;;;26.70;17.73;;;;;;;20.18;76.09;99795.91;2668319;89;21058;-62
2021/07/25 00:10:22;;;;;;;24.52;17.02;;;;;;;20.18;76.31;99804.51;2668623;89;21039;-64
2021/07/25 00:14:24;;;;;;;25.52;18.52;;;;;;;20.05;76.58;99799.38;2668193;89;21067;-63
2021/07/25 00:18:27;;;;;;;28.57;20.43;;;;;;;19.96;77.01;99796.52;2668217;89;21617;-62
2021/07/25 00:22:29;;;;;;;28.52;20.75;;;;;;;19.92;77.41;99783.11;2668579;89;21094;-62
2021/07/25 00:26:44;;;;;;;26.48;20.50;;;;;;;19.96;77.41;99780.32;2667864;89;21104;-63
2021/07/25 00:30:41;;;;;;;28.15;19.02;;;;;;;19.97;77.27;99776.59;2667159;89;21043;-64
2021/07/25 00:34:44;;;;;;;24.32;18.42;;;;;;;19.94;77.10;99762.97;2668545;89;21028;-62
2021/07/25 00:38:46;;;;;;;25.62;19.95;;;;;;;19.96;77.32;99758.73;2668349;89;21028;-61
2021/07/25 00:42:47;;;;;;;27.37;19.23;;;;;;;19.89;77.37;99757.84;2668317;89;21063;-62
2021/07/25 00:46:57;;;;;;;26.02;19.75;;;;;;;19.90;77.62;99752.77;2668118;89;21012;-61
2021/07/25 00:51:00;;;;;;;23.30;18.25;;;;;;;19.94;77.50;99739.20;2667940;89;21028;-63
2021/07/25 00:55:01;;;;;;;28.20;19.17;;;;;;;19.98;77.30;99729.67;2668284;89;21107;-65
2021/07/25 00:59:05;;;;;;;30.70;19.87;;;;;;;19.98;77.40;99722.92;2668256;89;21055;-62
2021/07/25 01:03:46;;;;;;;24.15;17.95;;;;;;;19.93;77.67;99712.72;2668126;89;21056;-62
2021/07/25 01:07:55;;;;;;;26.42;18.98;;;;;;;19.90;78.05;99705.53;2667774;88;21640;-63
2021/07/25 01:12:02;;;;;;;23.77;17.73;;;;;;;19.87;78.16;99703.23;2666873;89;21055;-63
2021/07/25 01:16:04;;;;;;;23.38;17.65;;;;;;;19.81;78.49;99689.50;2667926;89;21079;-64
2021/07/25 01:20:09;;;;;;;23.52;16.37;;;;;;;19.78;78.76;99687.20;2668243;89;21007;-62
2021/07/25 01:24:11;;;;;;;27.77;17.85;;;;;;;19.79;78.96;99690.22;2668155;89;21031;-63
2021/07/25 01:28:26;;;;;;;25.75;16.07;;;;;;;19.75;79.05;99687.61;2668528;89;21146;-64
2021/07/25 01:32:28;;;;;;;25.05;17.15;;;;;;;19.78;79.10;99683.16;2668138;88;21083;-63
2021/07/25 01:36:31;;;;;;;21.00;17.95;;;;;;;19.81;79.38;99681.41;2668306;89;21100;-62
2021/07/25 01:40:33;;;;;;;20.80;15.80;;;;;;;19.81;79.62;99681.41;2668144;89;21067;-62
2021/07/25 01:44:36;;;;;;;22.45;15.95;;;;;;;19.84;80.03;99686.39;2668468;88;21067;-63
2021/07/25 01:48:38;;;;;;;21.62;16.55;;;;;;;19.89;80.08;99686.33;2668424;89;21043;-63
2021/07/25 01:52:40;;;;;;;20.15;16.17;;;;;;;19.93;80.25;99698.41;2668349;89;21020;-62
2021/07/25 01:56:43;;;;;;;21.52;16.80;;;;;;;19.98;80.54;99699.98;2668140;89;21545;-62
2021/07/25 02:00:45;;;;;;;29.18;18.87;;;;;;;20.06;80.59;99690.37;2668624;89;21020;-63
2021/07/25 02:04:50;;;;;;;21.65;17.40;;;;;;;20.15;80.54;99695.56;2668211;89;21615;-61
2021/07/25 02:08:52;;;;;;;21.43;15.27;;;;;;;20.23;80.45;99696.72;2668629;89;21051;-63
2021/07/25 02:12:54;;;;;;;26.17;18.37;;;;;;;20.24;80.42;99688.43;2668391;89;21047;-62
2021/07/25 02:16:56;;;;;;;21.82;16.52;;;;;;;20.25;80.37;99693.33;2668152;89;21140;-61
2021/07/25 02:20:57;;;;;;;23.35;15.65;;;;;;;20.23;80.25;99694.02;2668497;89;21064;-62
2021/07/25 02:24:59;;;;;;;24.25;16.30;;;;;;;20.26;80.24;99693.11;2668206;89;21083;-64
2021/07/25 02:29:02;;;;;;;28.65;16.85;;;;;;;20.20;79.90;99683.63;2667611;89;21024;-62
2021/07/25 02:33:05;;;;;;;30.55;16.42;;;;;;;20.08;79.83;99690.99;2668167;89;21102;-62
2021/07/25 02:37:14;;;;;;;24.57;16.57;;;;;;;19.97;80.35;99693.77;2668516;89;21051;-63
2021/07/25 02:41:15;;;;;;;30.70;18.48;;;;;;;19.99;80.29;99704.34;2668382;89;21059;-62
2021/07/25 02:45:17;;;;;;;26.50;14.78;;;;;;;20.02;80.24;99698.53;2668341;89;21560;-61
2021/07/25 02:49:19;;;;;;;25.57;16.80;;;;;;;20.06;80.23;99697.12;2668460;89;21100;-62
2021/07/25 02:53:21;;;;;;;19.55;16.42;;;;;;;20.01;80.36;99698.75;2668399;89;21043;-62
2021/07/25 02:57:22;;;;;;;18.55;15.08;;;;;;;19.99;80.78;99685.45;2668610;89;21046;-62
2021/07/25 03:01:24;;;;;;;19.55;16.10;;;;;;;19.97;80.99;99684.81;2668534;89;21089;-64
2021/07/25 03:05:26;;;;;;;19.45;15.80;;;;;;;19.92;80.58;99667.88;2667907;89;21136;-62
2021/07/25 03:09:28;;;;;;;21.80;15.85;;;;;;;19.88;81.02;99677.92;2668361;89;21047;-64
2021/07/25 03:13:30;;;;;;;23.73;16.07;;;;;;;19.86;81.17;99679.45;2668404;89;21028;-62
2021/07/25 03:17:33;;;;;;;22.25;15.65;;;;;;;19.86;81.48;99675.94;2668394;87;21072;-62
2021/07/25 03:21:34;;;;;;;23.85;17.37;;;;;;;19.87;81.63;99681.66;2668382;89;21039;-62
2021/07/25 03:25:36;;;;;;;23.07;15.85;;;;;;;19.92;81.61;99681.91;2702290;88;21059;-65
2021/07/25 03:29:43;;;;;;;20.50;17.77;;;;;;;20.03;81.77;99687.23;2702255;87;21023;-63
2021/07/25 03:33:45;;;;;;;21.75;16.05;;;;;;;20.14;81.69;99693.91;2702252;88;21023;-62
2021/07/25 03:37:48;;;;;;;19.90;15.35;;;;;;;20.00;81.84;99693.86;2702559;88;21067;-65
2021/07/25 03:41:50;;;;;;;19.85;16.17;;;;;;;19.97;82.89;99696.46;2702254;88;21043;-62
2021/07/25 03:45:52;;;;;;;20.80;16.20;;;;;;;19.93;83.73;99707.86;2702297;88;21039;-64
2021/07/25 03:49:54;;;;;;;18.98;14.45;;;;;;;19.88;84.46;99704.91;2702473;88;21042;-61
2021/07/25 03:53:56;;;;;;;17.62;15.40;;;;;;;19.95;85.19;99702.58;2701979;88;21111;-62
2021/07/25 03:57:58;;;;;;;23.42;15.38;;;;;;;20.06;85.46;99703.02;2702488;87;21003;-64
2021/07/25 04:01:59;;;;;;;19.57;14.75;;;;;;;20.12;85.38;99700.84;2702623;88;21087;-62
2021/07/25 04:06:01;;;;;;;16.25;14.60;;;;;;;20.10;85.81;99705.11;2702366;87;21110;-62
2021/07/25 04:10:05;;;;;;;20.45;16.23;;;;;;;20.12;85.82;99704.39;2701874;88;21112;-64
2021/07/25 04:14:07;;;;;;;24.82;17.23;;;;;;;20.16;86.64;99698.58;2702189;87;21063;-61
2021/07/25 04:18:09;;;;;;;19.07;16.05;;;;;;;20.23;87.54;99703.47;2702426;87;22178;-64
2021/07/25 04:22:10;;;;;;;20.57;16.30;;;;;;;20.28;87.32;99694.27;2702234;88;21023;-63
2021/07/25 04:26:14;;;;;;;26.77;18.27;;;;;;;20.31;87.58;99699.75;2702580;88;21068;-62
2021/07/25 04:30:18;;;;;;;23.15;16.37;;;;;;;20.30;88.04;99702.14;2702459;88;21091;-62
2021/07/25 04:34:21;;;;;;;23.95;18.27;;;;;;;20.27;88.55;99704.75;2702310;88;21085;-65
2021/07/25 04:38:26;;;;;;;22.67;18.42;;;;;;;20.22;89.18;99697.76;2702238;88;21561;-64
2021/07/25 04:42:30;;;;;;;;;;;;;;;20.24;89.53;99707.83;2703945;88;21580;-63
2021/07/25 04:46:40;;;;;;;23.70;17.05;;;;;;;20.29;90.03;99725.63;2666874;89;20126;-64
2021/07/25 04:50:46;;;;;;;23.15;18.62;;;;;;;20.36;90.51;99733.22;2701680;87;20999;-64
2021/07/25 04:54:50;;;;;;;22.20;15.85;;;;;;;20.27;90.57;99725.00;2701171;88;21534;-63
2021/07/25 04:58:58;;;;;;;22.32;17.50;;;;;;;20.21;91.06;99725.80;2701760;87;21039;-66
2021/07/25 05:03:03;;;;;;;25.12;18.42;;;;;;;20.14;91.87;99733.05;2701116;88;21090;-63
2021/07/25 05:07:09;;;;;;;25.92;17.40;;;;;;;20.19;92.33;99742.72;2701711;88;21697;-63
2021/07/25 05:11:18;;;;;;;24.63;18.37;;;;;;;20.22;92.37;99741.80;2700938;88;21043;-63
2021/07/25 05:15:36;;;;;;;27.40;17.98;;;;;;;20.29;92.82;99744.53;2701352;88;21047;-62
2021/07/25 05:19:59;;;;;;;21.05;16.50;;;;;;;20.34;92.36;99739.85;2677302;88;21075;-67
2021/07/25 05:24:03;;;;;;;21.68;17.02;;;;;;;20.33;92.58;99732.28;2700971;87;21012;-65
2021/07/25 05:28:06;;;;;;;27.17;16.73;;;;;;;20.39;92.43;99746.31;2701488;87;21047;-62
2021/07/25 05:32:08;;;;;;;24.30;17.20;;;;;;;20.44;92.41;99751.61;2701820;88;21023;-65
2021/07/25 05:36:10;;;;;;;23.77;16.32;;;;;;;20.51;92.41;99753.30;2701705;88;22212;-62
2021/07/25 05:40:14;;;;;;;23.65;17.98;;;;;;;20.60;92.42;99745.83;2702026;88;21051;-63
2021/07/25 05:44:16;;;;;;;23.47;17.83;;;;;;;20.71;92.55;99754.39;2702252;88;21102;-64
2021/07/25 05:48:18;;;;;;;25.37;17.52;;;;;;;20.71;92.28;99758.44;2702215;88;21027;-64
2021/07/25 05:52:20;;;;;;;29.05;18.37;;;;;;;20.71;92.17;99755.73;2701874;87;21059;-61
2021/07/25 05:56:21;;;;;;;23.60;17.60;;;;;;;20.73;92.55;99752.31;2702255;88;21035;-63
2021/07/25 06:00:23;;;;;;;23.52;17.82;;;;;;;20.76;92.89;99762.70;2702423;86;21039;-61
2021/07/25 06:04:25;;;;;;;22.73;19.02;;;;;;;20.75;93.08;99772.70;2702203;87;21079;-63
2021/07/25 06:08:27;;;;;;;25.12;17.00;;;;;;;20.82;93.56;99776.27;2702834;87;21102;-63
2021/07/25 06:12:28;;;;;;;28.35;17.92;;;;;;;20.92;93.01;99779.91;2702425;87;21595;-64
2021/07/25 06:16:32;;;;;;;22.80;18.57;;;;;;;20.94;92.76;99783.77;2706503;87;29313;-61
2021/07/25 06:20:34;;;;;;;22.13;18.50;;;;;;;21.01;93.44;99773.78;2710866;87;21031;-61
2021/07/25 06:24:36;;;;;;;27.32;20.65;;;;;;;21.12;92.86;99772.33;2711050;87;21091;-63
2021/07/25 06:28:38;;;;;;;24.30;17.87;;;;;;;21.18;92.13;99778.25;2711437;87;21058;-63
2021/07/25 06:33:03;;;;;;;26.30;18.60;;;;;;;21.18;91.80;99772.02;2710660;88;21516;-64
2021/07/25 06:37:09;;;;;;;22.82;18.95;;;;;;;21.21;91.92;99774.30;2710753;87;21569;-64
2021/07/25 06:41:11;;;;;;;24.95;17.85;;;;;;;21.23;92.07;99784.39;2711189;86;21095;-64
2021/07/25 06:45:13;;;;;;;27.93;20.55;;;;;;;21.32;91.75;99780.95;2710888;87;21126;-63
2021/07/25 06:49:15;;;;;;;26.42;19.80;;;;;;;21.37;91.35;99779.80;2710669;88;21071;-67
2021/07/25 06:53:19;;;;;;;28.73;18.77;;;;;;;21.40;91.52;99773.97;2711013;87;21083;-65
2021/07/25 06:57:21;;;;;;;26.93;19.85;;;;;;;21.42;91.22;99774.61;2710894;87;21051;-64
2021/07/25 07:01:23;;;;;;;40.45;21.05;;;;;;;21.41;91.35;99779.69;2710947;87;21031;-62
2021/07/25 07:05:32;;;;;;;27.73;21.20;;;;;;;21.37;90.85;99782.50;2711016;86;21067;-63
2021/07/25 07:09:38;;;;;;;26.50;20.02;;;;;;;21.38;91.37;99776.05;2710921;87;21026;-63
2021/07/25 07:13:41;;;;;;;32.38;21.35;;;;;;;21.35;91.31;99776.47;2732993;85;21085;-63
2021/07/25 07:17:44;;;;;;;36.48;21.60;;;;;;;21.36;91.96;99778.98;2728431;85;21077;-64
2021/07/25 07:21:46;;;;;;;26.87;20.35;;;;;;;21.43;92.59;99776.78;2728569;87;21050;-63
2021/07/25 07:25:53;;;;;;;36.25;22.40;;;;;;;21.48;92.20;99781.88;2728438;87;21411;-67
2021/07/25 07:29:58;;;;;;;39.73;22.00;;;;;;;21.53;92.86;99783.42;2728075;87;21061;-66
2021/07/25 07:34:00;;;;;;;27.27;19.32;;;;;;;21.69;93.18;99785.41;2728209;86;21105;-62
2021/07/25 07:38:03;;;;;;;22.07;19.48;;;;;;;21.78;92.73;99782.77;2728446;87;21084;-66
2021/07/25 07:42:07;;;;;;;24.00;19.95;;;;;;;21.85;92.89;99786.83;2728490;86;21057;-64
2021/07/25 07:46:09;;;;;;;24.57;19.82;;;;;;;21.96;92.85;99782.63;2728341;87;21101;-63
2021/07/25 07:50:12;;;;;;;30.50;19.80;;;;;;;22.10;91.64;99785.59;2728066;86;21113;-63
2021/07/25 07:54:13;;;;;;;34.40;20.15;;;;;;;22.19;90.53;99788.05;2728646;86;21070;-64
2021/07/25 07:58:16;;;;;;;35.03;21.02;;;;;;;22.31;91.48;99789.05;2728667;86;21022;-64
2021/07/25 08:02:18;;;;;;;27.42;21.55;;;;;;;22.42;91.34;99785.37;2728794;87;21038;-64
2021/07/25 08:06:26;;;;;;;24.52;19.10;;;;;;;22.39;91.30;99787.44;2728484;86;21074;-64
2021/07/25 08:10:27;;;;;;;28.07;22.10;;;;;;;22.37;92.46;99793.59;2729081;86;21046;-65
2021/07/25 08:14:30;;;;;;;28.07;18.30;;;;;;;22.42;92.09;99788.08;2729251;86;21026;-66
2021/07/25 08:18:32;;;;;;;26.75;20.65;;;;;;;22.49;92.13;99797.02;2750278;86;21545;-63
2021/07/25 08:22:34;;;;;;;23.45;19.70;;;;;;;22.51;92.08;99797.64;2753026;86;21034;-66
2021/07/25 08:26:37;;;;;;;21.15;18.90;;;;;;;22.60;92.57;99788.22;2753411;86;21026;-65
2021/07/25 08:30:38;;;;;;;30.12;20.43;;;;;;;22.75;92.33;99793.33;2753323;86;21053;-65
2021/07/25 08:34:40;;;;;;;26.97;19.60;;;;;;;22.90;92.99;99801.69;2753509;86;21052;-64
2021/07/25 08:38:48;;;;;;;24.77;18.60;;;;;;;23.06;93.08;99794.34;2753247;86;21082;-63
2021/07/25 08:43:10;;;;;;;28.60;19.15;;;;;;;23.19;92.49;99797.50;2753516;86;21053;-65
2021/07/25 08:47:35;;;;;;;25.82;18.37;;;;;;;23.33;92.25;99803.67;2752560;86;21065;-65
2021/07/25 08:51:41;;;;;;;21.68;17.95;;;;;;;23.44;92.27;99806.19;2753154;86;21065;-66
2021/07/25 08:55:47;;;;;;;25.32;18.37;;;;;;;23.53;91.63;99798.05;2730643;86;21073;-65
2021/07/25 08:59:52;;;;;;;;;;;;;;;23.60;91.67;99799.89;2756160;86;21089;-66
2021/07/25 09:03:54;;;;;;;19.30;15.60;;;;;;;23.66;91.17;99807.12;2754466;85;20130;-66
2021/07/25 09:08:14;;;;;;;20.72;15.30;;;;;;;23.66;91.18;99809.30;2754492;86;21052;-65
2021/07/25 09:12:20;;;;;;;22.37;15.25;;;;;;;23.68;91.53;99814.52;2754645;86;21085;-63
2021/07/25 09:16:26;;;;;;;;;;;;;;;23.68;92.15;99813.16;2757322;86;21065;-63
2021/07/25 09:20:36;;;;;;;19.95;14.63;;;;;;;23.75;92.04;99823.41;2753749;86;20485;-63
2021/07/25 09:24:38;;;;;;;24.12;14.35;;;;;;;23.79;92.24;99830.08;2760523;84;21560;-64
2021/07/25 09:28:40;;;;;;;18.57;14.10;;;;;;;23.78;91.64;99831.13;2692722;87;21089;-64
2021/07/25 09:32:41;;;;;;;15.90;10.90;;;;;;;23.86;91.07;99828.63;2716863;87;21046;-64
2021/07/25 09:37:15;;;;;;;15.18;11.55;;;;;;;23.85;90.73;99828.87;2716351;87;21070;-67
2021/07/25 09:41:20;;;;;;;17.40;12.33;;;;;;;23.84;90.31;99823.13;2714664;87;21066;-65
2021/07/25 09:45:24;;;;;;;18.27;11.70;;;;;;;23.61;90.44;99816.48;2716365;87;21015;-65
2021/07/25 09:49:31;;;;;;;13.43;10.65;;;;;;;23.46;91.18;99816.29;2716362;87;21008;-65
2021/07/25 09:53:49;;;;;;;15.53;11.55;;;;;;;23.39;91.92;99816.89;2712435;85;21066;-63
2021/07/25 09:57:54;;;;;;;17.00;10.43;;;;;;;23.36;92.70;99829.00;2774653;85;21482;-65
2021/07/25 10:01:56;;;;;;;13.18;10.90;;;;;;;23.46;93.62;99825.79;2803955;85;20979;-65
2021/07/25 10:05:58;;;;;;;13.80;9.68;;;;;;;23.60;94.25;99828.39;2803907;83;21051;-66
2021/07/25 10:10:00;;;;;;;12.68;10.43;;;;;;;23.77;94.41;99824.02;2804403;85;21025;-67
2021/07/25 10:14:03;;;;;;;14.75;10.90;;;;;;;23.90;92.81;99814.08;2804631;84;21054;-66
2021/07/25 10:18:07;;;;;;;15.88;12.07;;;;;;;24.06;92.56;99810.80;2801074;83;21032;-66
2021/07/25 10:22:11;;;;;;;15.40;10.23;;;;;;;24.23;91.78;99807.47;2800187;85;21007;-65
2021/07/25 10:26:15;;;;;;;11.57;10.25;;;;;;;24.31;90.03;99807.14;2800358;84;21886;-64
2021/07/25 10:30:18;;;;;;;16.23;9.67;;;;;;;24.30;91.32;99811.47;2800280;85;21083;-66
2021/07/25 10:34:21;;;;;;;19.98;13.58;;;;;;;24.35;91.42;99802.90;2800054;83;21015;-63
2021/07/25 10:38:24;;;;;;;18.65;14.07;;;;;;;24.47;92.70;99808.42;2799885;85;21118;-64
2021/07/25 10:42:29;;;;;;;16.82;13.20;;;;;;;24.58;92.59;99804.09;2799623;85;21528;-65
2021/07/25 10:46:33;;;;;;;16.05;13.20;;;;;;;24.65;91.78;99802.09;2800633;85;21031;-64
2021/07/25 10:50:35;;;;;;;18.80;13.43;;;;;;;24.75;91.63;99797.97;2800137;85;21039;-62
2021/07/25 10:54:48;;;;;;;18.65;13.40;;;;;;;24.84;90.57;99800.70;2800137;85;21012;-65
2021/07/25 10:58:55;;;;;;;16.12;12.73;;;;;;;24.88;90.45;99805.97;2800253;85;21525;-66
2021/07/25 11:02:57;;;;;;;16.07;11.75;;;;;;;24.92;90.51;99795.47;2800408;85;21072;-66
2021/07/25 11:07:27;;;;;;;19.65;13.35;;;;;;;25.05;89.70;99788.98;2800405;83;21078;-64
2021/07/25 11:11:39;;;;;;;19.57;14.07;;;;;;;25.14;89.84;99793.00;2800573;84;21019;-64
2021/07/25 11:15:40;;;;;;;19.42;17.40;;;;;;;25.33;90.14;99787.45;2790396;83;21052;-64
2021/07/25 11:19:48;;;;;;;13.15;11.65;;;;;;;25.55;88.45;99793.18;2706252;86;21082;-64
2021/07/25 11:23:52;;;;;;;20.27;13.88;;;;;;;25.73;86.95;99795.48;2702983;86;21131;-64
2021/07/25 11:27:58;;;;;;;17.07;13.18;;;;;;;25.88;84.56;99796.34;2653182;89;21079;-64
2021/07/25 11:32:04;;;;;;;;;;;;;;;25.92;82.09;99794.27;2702460;87;21080;-65
2021/07/25 11:36:08;;;;;;;18.77;12.50;;;;;;;25.92;83.83;99794.27;2660584;89;20147;-64
2021/07/25 11:40:12;;;;;;;18.10;10.33;;;;;;;26.03;83.33;99788.50;2661137;89;21071;-63
2021/07/25 11:44:15;;;;;;;18.40;14.23;;;;;;;26.08;82.02;99794.59;2698074;88;21020;-60
2021/07/25 11:48:22;;;;;;;16.75;13.08;;;;;;;26.17;82.46;99786.90;2698773;88;21150;-64
2021/07/25 11:52:27;;;;;;;11.10;9.73;;;;;;;26.38;80.63;99779.94;2698375;88;21096;-62
2021/07/25 11:56:29;;;;;;;15.85;11.22;;;;;;;26.50;79.35;99783.97;2699147;88;21565;-64
2021/07/25 12:00:35;;;;;;;9.23;7.87;;;;;;;26.56;77.99;99780.29;2704655;87;21020;-62
2021/07/25 12:04:46;;;;;;;13.53;8.88;;;;;;;26.58;76.34;99786.84;2676708;86;21138;-64
2021/07/25 12:09:10;;;;;;;11.90;10.15;;;;;;;26.55;74.72;99788.70;2662480;89;21091;-61
2021/07/25 12:13:13;;;;;;;10.45;8.93;;;;;;;26.57;76.22;99787.39;2704163;88;21075;-62
2021/07/25 12:17:50;;;;;;;12.93;9.40;;;;;;;26.69;74.43;99779.15;2705046;85;21549;-61
2021/07/25 12:22:18;;;;;;;11.25;9.65;;;;;;;26.74;72.59;99781.96;2700398;86;21032;-64
2021/07/25 12:26:41;;;;;;;13.68;9.63;;;;;;;26.89;73.43;99784.70;2704426;86;21051;-64
2021/07/25 12:30:57;;;;;;;9.90;8.85;;;;;;;27.20;73.09;99779.20;2704663;88;21000;-62
2021/07/25 12:35:20;;;;;;;12.37;9.30;;;;;;;27.51;71.04;99773.37;2703536;87;21083;-62
2021/07/25 12:39:23;;;;;;;13.32;9.93;;;;;;;27.79;69.60;99762.02;2704635;88;20969;-64
2021/07/25 12:43:27;;;;;;;19.17;10.70;;;;;;;28.17;67.91;99756.78;2703881;87;21043;-64
2021/07/25 12:47:31;;;;;;;15.77;12.67;;;;;;;28.52;64.84;99750.05;2704266;88;21008;-65
2021/07/25 12:51:42;;;;;;;10.23;8.20;;;;;;;28.86;65.94;99747.63;2704019;87;21075;-62
2021/07/25 12:55:49;;;;;;;9.25;8.25;;;;;;;29.10;63.35;99728.94;2709570;86;21003;-64
2021/07/25 12:59:52;;;;;;;11.38;9.63;;;;;;;29.22;61.28;99735.02;2748189;86;21011;-66
2021/07/25 13:04:00;;;;;;;24.50;18.32;;;;;;;29.11;61.11;99737.43;2748205;85;21066;-67
2021/07/25 13:08:06;;;;;;;11.22;9.95;;;;;;;29.16;61.48;99731.14;2748141;86;21437;-65
2021/07/25 13:12:10;;;;;;;12.00;10.75;;;;;;;29.00;59.77;99722.84;2748552;86;20999;-64
2021/07/25 13:16:19;;;;;;;14.23;9.15;;;;;;;28.96;59.89;99718.15;2748621;86;20999;-65
2021/07/25 13:20:21;;;;;;;10.50;9.48;;;;;;;28.95;59.41;99713.77;2794146;85;21023;-66
2021/07/25 13:24:23;;;;;;;8.95;8.10;;;;;;;29.18;60.05;99727.59;2796398;83;21109;-65
2021/07/25 13:28:27;;;;;;;9.43;8.35;;;;;;;29.45;60.42;99722.59;2797116;84;21040;-63
2021/07/25 13:32:29;;;;;;;10.82;8.40;;;;;;;29.76;63.01;99719.45;2797386;84;21027;-64
2021/07/25 13:36:32;;;;;;;14.85;8.50;;;;;;;29.86;57.86;99706.86;2797391;84;21080;-67
2021/07/25 13:40:34;;;;;;;9.43;8.18;;;;;;;29.86;57.86;99706.86;2771985;85;21027;-63
2021/07/25 13:44:36;;;;;;;15.10;9.25;;;;;;;29.76;59.57;99703.01;2796704;85;21309;-65
2021/07/25 13:48:41;;;;;;;9.85;8.23;;;;;;;29.76;59.57;99703.01;2797383;84;20984;-64
2021/07/25 13:52:44;;;;;;;9.78;8.28;;;;;;;29.83;58.00;99697.81;2797365;84;21069;-65
2021/07/25 13:56:55;;;;;;;13.93;8.90;;;;;;;29.79;57.48;99698.36;2797608;85;21056;-65
2021/07/25 14:00:56;;;;;;;9.18;8.28;;;;;;;29.97;57.93;99699.49;2797647;84;20980;-64
2021/07/25 14:04:58;;;;;;;10.38;7.75;;;;;;;29.97;57.93;99699.49;2797348;83;21031;-64
2021/07/25 14:09:10;;;;;;;7.53;6.70;;;;;;;29.95;58.02;99697.04;2797526;84;21019;-66
2021/07/25 14:13:12;;;;;;;9.25;7.12;;;;;;;30.01;58.14;99697.88;2778046;84;21056;-63
2021/07/25 14:17:14;;;;;;;11.30;7.53;;;;;;;29.82;57.00;99695.63;2734412;86;21178;-65
2021/07/25 14:21:15;;;;;;;9.58;7.28;;;;;;;29.60;58.11;99693.08;2750658;86;21015;-65
2021/07/25 14:25:17;;;;;;;10.50;8.05;;;;;;;29.48;58.10;99687.29;2750932;86;20984;-64
2021/07/25 14:29:21;;;;;;;11.25;6.95;;;;;;;29.31;59.33;99686.05;2750781;86;21043;-63
2021/07/25 14:33:23;;;;;;;8.65;6.28;;;;;;;29.33;60.45;99681.13;2751166;86;21047;-65
2021/07/25 14:37:26;;;;;;;7.28;6.58;;;;;;;29.53;59.47;99682.35;2750838;86;21020;-62
2021/07/25 14:41:28;;;;;;;7.37;6.70;;;;;;;29.70;58.16;99678.05;2750732;86;20992;-64
2021/07/25 14:45:30;;;;;;;6.87;6.17;;;;;;;29.85;57.24;99668.22;2759154;86;20999;-64
2021/07/25 14:49:39;;;;;;;6.95;5.90;;;;;;;29.89;57.64;99659.75;2764056;86;20979;-63
2021/07/25 14:53:45;;;;;;;7.17;6.47;;;;;;;30.00;56.98;99644.95;2763868;86;21007;-65
2021/07/25 14:57:52;;;;;;;9.00;6.37;;;;;;;30.16;56.92;99643.64;2763956;86;21063;-63
2021/07/25 15:01:54;;;;;;;9.73;7.62;;;;;;;30.26;55.89;99629.92;2763894;86;21062;-63
2021/07/25 15:05:55;;;;;;;10.38;8.70;;;;;;;30.21;55.86;99634.05;2763997;86;21090;-63
2021/07/25 15:09:59;;;;;;;9.48;8.55;;;;;;;30.20;55.75;99625.55;2763710;86;20992;-66
2021/07/25 15:14:01;;;;;;;12.30;10.25;;;;;;;30.17;55.33;99622.82;2764149;86;20996;-66
2021/07/25 15:18:03;;;;;;;13.22;10.60;;;;;;;30.14;54.54;99628.82;2759250;86;21082;-65
2021/07/25 15:22:05;;;;;;;26.35;12.23;;;;;;;30.20;53.32;99616.78;2763734;86;21046;-64
2021/07/25 15:26:10;;;;;;;13.13;11.83;;;;;;;30.19;54.55;99624.73;2763796;86;21023;-65
2021/07/25 15:30:13;;;;;;;11.05;9.90;;;;;;;30.18;53.17;99622.25;2763743;86;21102;-63
2021/07/25 15:34:14;;;;;;;13.28;11.97;;;;;;;30.16;53.40;99621.70;2763884;86;20992;-62
2021/07/25 15:38:18;;;;;;;13.40;11.55;;;;;;;30.05;53.43;99621.69;2763931;86;20956;-66
2021/07/25 15:42:20;;;;;;;15.32;11.48;;;;;;;30.04;52.72;99608.27;2764076;86;21023;-63
2021/07/25 15:46:32;;;;;;;13.93;12.47;;;;;;;29.97;52.57;99607.13;2763774;86;20980;-63
2021/07/25 15:50:35;;;;;;;15.28;13.68;;;;;;;29.91;53.50;99603.55;2763800;86;21047;-65
2021/07/25 15:54:37;;;;;;;14.43;12.75;;;;;;;29.72;53.24;99592.82;2763713;86;21110;-64
2021/07/25 15:58:41;;;;;;;15.80;14.13;;;;;;;29.60;53.67;99591.70;2763518;86;21023;-64
2021/07/25 16:02:42;;;;;;;17.92;14.60;;;;;;;29.54;53.85;99590.85;2763503;86;21035;-65
2021/07/25 16:06:44;;;;;;;20.80;15.50;;;;;;;29.49;54.28;99586.20;2763361;86;21123;-64
2021/07/25 16:10:46;;;;;;;17.10;15.23;;;;;;;29.54;54.18;99591.42;2763484;86;21015;-65
2021/07/25 16:14:48;;;;;;;16.12;14.47;;;;;;;29.55;54.36;99595.80;2763344;86;20996;-66
2021/07/25 16:18:52;;;;;;;13.98;12.55;;;;;;;29.43;54.69;99600.95;2758147;84;21608;-64
2021/07/25 16:22:54;;;;;;;20.30;16.20;;;;;;;29.34;55.01;99601.18;2747367;86;21675;-63
2021/07/25 16:27:18;;;;;;;18.65;14.90;;;;;;;29.30;55.34;99599.52;2748205;86;21007;-66
2021/07/25 16:31:20;;;;;;;14.63;13.28;;;;;;;29.14;54.73;99599.16;2747790;86;21004;-66
2021/07/25 16:35:22;;;;;;;17.02;14.15;;;;;;;29.04;55.18;99590.35;2747602;86;21084;-64
2021/07/25 16:39:26;;;;;;;16.67;15.03;;;;;;;28.91;54.69;99608.92;2747506;86;21084;-63
2021/07/25 16:43:28;;;;;;;16.87;15.08;;;;;;;28.91;54.69;99608.92;2747989;86;21035;-65
2021/07/25 16:47:32;;;;;;;19.57;16.95;;;;;;;28.83;54.94;99621.72;2747641;85;21011;-63
2021/07/25 16:51:33;;;;;;;20.45;16.10;;;;;;;28.75;55.72;99623.56;2747879;86;21063;-65
2021/07/25 16:55:35;;;;;;;21.37;17.60;;;;;;;28.62;55.06;99629.75;2747623;86;21012;-65
2021/07/25 16:59:37;;;;;;;20.27;17.02;;;;;;;28.47;55.77;99631.00;2747645;86;21008;-66
2021/07/25 17:03:38;;;;;;;18.67;16.75;;;;;;;28.35;55.75;99623.81;2747773;86;21023;-65
2021/07/25 17:07:42;;;;;;;22.77;18.12;;;;;;;28.18;56.33;99614.34;2747564;86;21592;-63
2021/07/25 17:11:44;;;;;;;23.55;19.62;;;;;;;28.07;56.27;99613.95;2747340;86;21008;-63
2021/07/25 17:15:46;;;;;;;23.32;19.45;;;;;;;27.98;56.79;99614.97;2747449;86;21530;-63
2021/07/25 17:19:47;;;;;;;24.10;19.00;;;;;;;27.84;57.58;99612.35;2729099;86;21060;-63
2021/07/25 17:23:49;;;;;;;23.15;19.70;;;;;;;27.66;57.65;99607.52;2705528;88;21004;-62
2021/07/25 17:27:57;;;;;;;21.30;18.37;;;;;;;27.48;58.11;99604.02;2705311;88;21071;-64
2021/07/25 17:31:58;;;;;;;21.82;19.52;;;;;;;27.33;58.29;99603.85;2705190;88;21028;-62
2021/07/25 17:36:00;;;;;;;22.35;18.07;;;;;;;27.17;58.82;99610.47;2705502;87;21036;-62
2021/07/25 17:40:08;;;;;;;22.85;19.60;;;;;;;27.01;58.99;99618.16;2705385;88;20992;-61
2021/07/25 17:44:15;;;;;;;21.87;18.52;;;;;;;26.84;59.25;99618.98;2704854;87;21060;-64
2021/07/25 17:48:20;;;;;;;21.93;18.25;;;;;;;26.69;59.71;99622.84;2704771;88;21067;-64
2021/07/25 17:52:22;;;;;;;23.12;19.17;;;;;;;26.55;60.11;99627.28;2705357;88;21071;-62
2021/07/25 17:56:23;;;;;;;21.33;18.62;;;;;;;26.38;60.55;99626.74;2705369;87;21043;-63
2021/07/25 18:00:25;;;;;;;27.20;18.85;;;;;;;26.26;60.68;99617.80;2704707;86;21605;-62
2021/07/25 18:04:27;;;;;;;22.32;19.65;;;;;;;26.10;61.08;99603.88;2735333;85;21035;-61
2021/07/25 18:08:29;;;;;;;26.50;19.20;;;;;;;26.00;61.37;99596.89;2738550;86;21036;-63
2021/07/25 18:12:30;;;;;;;24.90;19.25;;;;;;;25.88;61.43;99601.56;2724078;86;21087;-64
2021/07/25 18:16:34;;;;;;;22.15;18.50;;;;;;;25.76;61.68;99605.19;2704587;86;21047;-62
2021/07/25 18:20:36;;;;;;;21.87;17.63;;;;;;;25.66;61.95;99609.06;2704384;86;21093;-61
2021/07/25 18:24:39;;;;;;;23.77;20.02;;;;;;;25.52;62.31;99607.97;2703846;88;21005;-62
2021/07/25 18:28:42;;;;;;;26.00;18.60;;;;;;;25.39;62.87;99616.41;2748946;86;21057;-63
2021/07/25 18:32:44;;;;;;;25.23;18.85;;;;;;;25.23;63.34;99628.84;2748642;86;21060;-60
2021/07/25 18:36:46;;;;;;;23.22;17.90;;;;;;;25.09;63.99;99643.23;2748928;86;21020;-62
2021/07/25 18:40:49;;;;;;;24.57;20.15;;;;;;;24.95;64.61;99658.44;2748169;86;21000;-62
2021/07/25 18:44:50;;;;;;;24.90;19.35;;;;;;;24.80;65.05;99677.95;2748616;86;21036;-61
2021/07/25 18:48:52;;;;;;;19.75;16.80;;;;;;;24.64;65.72;99678.08;2748636;86;21035;-61